Ojibwa, WI (54862)

4:02 AM CDT on August 27, 2016 (GMT -0500)
Dam Road | | Change Station

Elev 1312 ft 45.87 °N, 91.07 °W | Updated 22 seconds ago

Mostly Cloudy
Mostly Cloudy
53.4 °F
Feels Like 53.4 °F
N
0.0
Wind Variable Wind from WSW
Gusts 0.0 mph

Today
High -- | Low -- °F
--% Chance of Precip.
Yesterday
High -- | Low -- °F
Precip. -- in
Pressure 30.14 in
Visibility 10.0 miles
Clouds Mostly Cloudy 12000 ft
Dew Point 53 °F
Humidity 97%
Rainfall 0.00 in
Snow Depth Not available.
6:19 AM 7:50 PM
Waning Crescent, 26% visible
METAR KRCX 270855Z AUTO 08003KT 10SM BKN120 15/13 A3014 RMK AO2 T01450125
Pressure 30.14 in
Visibility 10.0 miles
Clouds Mostly Cloudy 12000 ft
Dew Point 53 °F
Humidity 97%
Rainfall 0.00 in
Snow Depth Not available.
6:19 AM 7:50 PM
Waning Crescent, 26% visible
METAR KRCX 270855Z AUTO 08003KT 10SM BKN120 15/13 A3014 RMK AO2 T01450125

10-Day Weather Forecast

Almanac

Astronomy

Aug. 27, 2016 Rise Set
Actual Time
Civil Twilight
Nautical Twilight
Astronomical Twilight
Moon
Length of Visible Light
Length of Day
Tomorrow will be .
, % of the Moon is Illuminated

Today's Extremes

State Highs State Lows

Community

WunderPhotos

Upload Photos

1,935,313 photos uploaded!

WunderBlog® & News

Nearby

Air Quality

  Air Quality AQ Index Pollutant
Not available.

Snow Depth

Station Depth Elevation

Earthquake Activity

City Distance Mag. Time & Date
Minimum magnitude displayed is 2.5.

Coastal Water Temperatures

Place Temperature

Stations

Nearby Weather Stations

Station Location Temp. Windchill Dew Point Humidity Wind Precip. Elev Updated Type
                   

Watches & Warnings

There are currently no watches in effect.